Time;durP1;ratioP1;P1;durP2;ratioP2;P2;SDS_P1;SDS_P2;PMS_P1;PMS_P2;Temp;Humidity;BMP_temperature;BMP_pressure;BME280_temperature;BME280_humidity;BME280_pressure;Samples;Min_cycle;Max_cycle;Signal;HPM_P1;HPM_P2
2023/08/20 00:02:01;;;;;;;8.75;3.70;;;;;;;;;;5028341;28;20044;-82
2023/08/20 00:04:28;;;;;;;7.82;3.50;;;;;;;;;;5027204;28;20021;-81
2023/08/20 00:06:53;;;;;;;5.57;3.45;;;;;;;;;;5019942;28;20044;-82
2023/08/20 00:09:19;;;;;;;6.28;3.60;;;;;;;;;;5023157;28;20425;-82
2023/08/20 00:11:44;;;;;;;7.35;3.55;;;;;;;;;;5028507;28;20037;-79
2023/08/20 00:14:16;;;;;;;6.53;3.88;;;;;;;;;;5028651;28;20021;-81
2023/08/20 00:16:42;;;;;;;5.88;3.60;;;;;;;;;;5031216;28;20037;-82
2023/08/20 00:19:07;;;;;;;6.40;3.75;;;;;;;;;;5025197;28;20030;-82
2023/08/20 00:21:33;;;;;;;26.15;16.42;;;;;;;;;;5050225;28;20141;-79
2023/08/20 00:23:59;;;;;;;12.73;8.30;;;;;;;;;;5031006;28;20040;-80
2023/08/20 00:26:24;;;;;;;7.18;4.60;;;;;;;;;;5031837;28;20034;-79
2023/08/20 00:28:50;;;;;;;6.95;3.78;;;;;;;;;;5031761;28;20026;-79
2023/08/20 00:31:15;;;;;;;7.38;3.80;;;;;;;;;;5036300;28;20417;-80
2023/08/20 00:33:40;;;;;;;11.07;4.40;;;;;;;;;;5041971;28;20325;-82
2023/08/20 00:36:06;;;;;;;9.25;3.72;;;;;;;;;;5042471;28;20092;-81
2023/08/20 00:38:31;;;;;;;8.52;3.60;;;;;;;;;;5039685;28;20055;-80
2023/08/20 00:40:57;;;;;;;6.50;3.45;;;;;;;;;;5042141;28;20309;-79
2023/08/20 00:43:22;;;;;;;7.57;3.17;;;;;;;;;;5028710;28;20087;-81
2023/08/20 00:45:48;;;;;;;10.52;3.42;;;;;;;;;;5037621;28;20021;-80
2023/08/20 00:48:14;;;;;;;8.40;2.83;;;;;;;;;;5031002;28;20049;-81
2023/08/20 00:50:40;;;;;;;6.82;2.90;;;;;;;;;;5032457;28;20175;-74
2023/08/20 00:53:07;;;;;;;10.50;2.80;;;;;;;;;;5029554;28;20029;-81
2023/08/20 00:55:33;;;;;;;8.85;3.00;;;;;;;;;;5016982;28;20036;-80
2023/08/20 00:57:58;;;;;;;8.27;2.72;;;;;;;;;;5016559;28;20022;-79
2023/08/20 01:00:24;;;;;;;6.57;2.90;;;;;;;;;;5019417;28;20033;-81
2023/08/20 01:02:49;;;;;;;7.80;3.05;;;;;;;;;;5011192;28;20493;-82
2023/08/20 01:05:16;;;;;;;8.13;2.75;;;;;;;;;;5026096;28;20156;-75
2023/08/20 01:07:50;;;;;;;8.40;2.28;;;;;;;;;;5030411;28;20045;-75
2023/08/20 01:10:34;;;;;;;10.37;2.37;;;;;;;;;;5022878;28;20048;-74
2023/08/20 01:13:00;;;;;;;10.07;3.03;;;;;;;;;;5020663;28;20040;-75
2023/08/20 01:15:25;;;;;;;9.85;2.40;;;;;;;;;;5031024;28;20489;-75
2023/08/20 01:17:51;;;;;;;6.00;2.47;;;;;;;;;;5030949;28;20084;-75
2023/08/20 01:20:17;;;;;;;6.63;2.17;;;;;;;;;;5031140;28;20033;-76
2023/08/20 01:23:10;;;;;;;6.93;2.17;;;;;;;;;;5030517;28;20041;-74
2023/08/20 01:26:06;;;;;;;7.25;2.15;;;;;;;;;;5030846;28;20026;-74
2023/08/20 01:28:32;;;;;;;6.18;2.15;;;;;;;;;;5030058;28;20017;-74
2023/08/20 01:30:59;;;;;;;8.88;2.30;;;;;;;;;;5030239;28;20025;-75
2023/08/20 01:33:25;;;;;;;8.20;2.33;;;;;;;;;;5029639;28;20485;-74
2023/08/20 01:35:54;;;;;;;8.13;2.20;;;;;;;;;;5030187;28;20032;-74
2023/08/20 01:38:19;;;;;;;6.95;2.08;;;;;;;;;;5029563;28;20074;-74
2023/08/20 01:40:45;;;;;;;6.65;2.20;;;;;;;;;;5029894;28;20022;-74
2023/08/20 01:43:10;;;;;;;9.52;2.42;;;;;;;;;;5029695;28;20026;-75
2023/08/20 01:45:36;;;;;;;7.38;2.80;;;;;;;;;;5030545;28;20017;-74
2023/08/20 01:48:01;;;;;;;7.50;2.60;;;;;;;;;;5030245;28;20113;-74
2023/08/20 01:50:26;;;;;;;7.28;2.40;;;;;;;;;;5030405;28;20120;-74
2023/08/20 01:52:52;;;;;;;9.55;2.35;;;;;;;;;;5029873;28;20032;-74
2023/08/20 01:55:17;;;;;;;8.13;2.22;;;;;;;;;;5030418;28;20017;-74
2023/08/20 01:57:43;;;;;;;5.00;2.05;;;;;;;;;;5030309;28;20528;-75
2023/08/20 02:00:09;;;;;;;7.03;2.20;;;;;;;;;;5030095;28;20025;-75
2023/08/20 02:02:34;;;;;;;8.77;2.30;;;;;;;;;;5029675;28;20021;-74
2023/08/20 02:05:00;;;;;;;6.80;2.25;;;;;;;;;;5030008;28;20027;-75
2023/08/20 02:07:25;;;;;;;7.88;2.00;;;;;;;;;;5029363;28;20107;-74
2023/08/20 02:09:50;;;;;;;6.93;2.20;;;;;;;;;;5029886;28;20584;-75
2023/08/20 02:12:16;;;;;;;9.07;2.30;;;;;;;;;;5029985;28;20025;-75
2023/08/20 02:14:41;;;;;;;7.88;2.45;;;;;;;;;;5030240;28;20036;-75
2023/08/20 02:17:07;;;;;;;9.43;2.30;;;;;;;;;;5027265;28;20029;-75
2023/08/20 02:19:32;;;;;;;8.40;2.25;;;;;;;;;;5016498;28;20103;-76
2023/08/20 02:21:58;;;;;;;6.55;1.98;;;;;;;;;;5025887;28;21139;-76
2023/08/20 02:24:23;;;;;;;8.02;2.00;;;;;;;;;;5020440;28;20018;-75
2023/08/20 02:26:49;;;;;;;6.18;2.10;;;;;;;;;;5024798;28;20091;-75
2023/08/20 02:29:14;;;;;;;9.50;2.30;;;;;;;;;;5029732;28;20385;-75
2023/08/20 02:31:39;;;;;;;7.85;2.20;;;;;;;;;;5029506;28;20036;-75
2023/08/20 02:34:05;;;;;;;6.60;2.15;;;;;;;;;;5029781;28;20033;-74
2023/08/20 02:36:30;;;;;;;7.57;2.22;;;;;;;;;;5029481;28;20134;-75
2023/08/20 02:38:55;;;;;;;7.25;2.00;;;;;;;;;;5028899;28;20033;-75
2023/08/20 02:41:20;;;;;;;6.35;2.17;;;;;;;;;;5029310;28;20033;-75
2023/08/20 02:43:46;;;;;;;7.55;2.00;;;;;;;;;;5029157;28;20045;-75
2023/08/20 02:46:11;;;;;;;9.52;2.28;;;;;;;;;;5029414;28;20041;-75
2023/08/20 02:48:37;;;;;;;7.82;2.00;;;;;;;;;;5029341;28;20108;-75
2023/08/20 02:51:02;;;;;;;7.80;2.42;;;;;;;;;;5061321;28;20029;-75
2023/08/20 02:53:28;;;;;;;7.18;2.17;;;;;;;;;;5027653;28;20072;-74
2023/08/20 02:55:54;;;;;;;7.25;2.20;;;;;;;;;;5029373;28;20049;-74
2023/08/20 02:58:19;;;;;;;7.63;2.20;;;;;;;;;;5023889;28;20508;-74
2023/08/20 03:00:53;;;;;;;5.93;2.30;;;;;;;;;;5015998;28;20043;-74
2023/08/20 03:03:19;;;;;;;8.27;2.60;;;;;;;;;;5021504;28;20493;-74
2023/08/20 03:05:44;;;;;;;10.23;2.63;;;;;;;;;;5016131;28;20031;-76
2023/08/20 03:08:09;;;;;;;9.02;2.63;;;;;;;;;;5019115;28;20092;-74
2023/08/20 03:10:35;;;;;;;14.93;3.65;;;;;;;;;;5025659;28;20049;-75
2023/08/20 03:13:02;;;;;;;12.60;3.67;;;;;;;;;;5029096;28;20052;-75
2023/08/20 03:15:30;;;;;;;9.23;2.97;;;;;;;;;;5028898;28;21488;-75
2023/08/20 03:17:56;;;;;;;7.05;2.92;;;;;;;;;;5029041;28;20370;-75
2023/08/20 03:20:22;;;;;;;8.20;3.20;;;;;;;;;;5028987;28;20029;-75
2023/08/20 03:22:48;;;;;;;12.10;3.75;;;;;;;;;;5027068;28;20057;-77
2023/08/20 03:25:13;;;;;;;11.02;4.25;;;;;;;;;;5026934;28;20591;-75
2023/08/20 03:27:38;;;;;;;7.75;3.72;;;;;;;;;;5028222;28;20059;-76
2023/08/20 03:30:04;;;;;;;11.75;4.40;;;;;;;;;;5015863;28;20029;-76
2023/08/20 03:32:31;;;;;;;12.80;4.97;;;;;;;;;;5018896;28;20034;-74
2023/08/20 03:34:58;;;;;;;10.88;4.95;;;;;;;;;;5025086;28;20112;-75
2023/08/20 03:37:24;;;;;;;13.98;5.18;;;;;;;;;;5027184;28;20029;-76
2023/08/20 03:39:50;;;;;;;10.02;4.07;;;;;;;;;;5028834;28;20036;-74
2023/08/20 03:42:15;;;;;;;12.50;3.53;;;;;;;;;;5028524;28;20132;-76
2023/08/20 03:44:40;;;;;;;9.13;3.50;;;;;;;;;;5028557;28;20133;-74
2023/08/20 03:47:06;;;;;;;8.35;2.95;;;;;;;;;;5027281;28;20477;-74
2023/08/20 03:49:31;;;;;;;6.97;3.10;;;;;;;;;;5028585;28;20068;-75
2023/08/20 03:51:56;;;;;;;7.68;2.63;;;;;;;;;;5033556;28;20034;-75
2023/08/20 03:54:22;;;;;;;6.68;2.53;;;;;;;;;;5021913;28;20076;-75
2023/08/20 03:56:47;;;;;;;6.97;2.60;;;;;;;;;;5032362;28;20047;-74
2023/08/20 03:59:12;;;;;;;6.53;2.53;;;;;;;;;;5032251;28;20498;-75
2023/08/20 04:01:38;;;;;;;6.13;2.50;;;;;;;;;;5032398;28;20068;-76
2023/08/20 04:04:04;;;;;;;6.45;2.22;;;;;;;;;;5032216;28;20067;-75
2023/08/20 04:06:29;;;;;;;6.75;2.33;;;;;;;;;;5032005;28;20057;-75
2023/08/20 04:08:55;;;;;;;6.95;2.20;;;;;;;;;;5031538;28;20065;-76
2023/08/20 04:11:20;;;;;;;11.38;2.55;;;;;;;;;;5032304;28;20018;-74
2023/08/20 04:13:45;;;;;;;5.72;2.50;;;;;;;;;;5031962;28;20112;-76
2023/08/20 04:16:11;;;;;;;5.53;2.10;;;;;;;;;;5032060;28;20412;-74
2023/08/20 04:18:36;;;;;;;6.88;2.53;;;;;;;;;;5031968;28;20029;-76
2023/08/20 04:21:01;;;;;;;7.43;2.53;;;;;;;;;;5032231;28;20080;-75
2023/08/20 04:23:27;;;;;;;5.35;2.00;;;;;;;;;;5030762;28;20030;-76
2023/08/20 04:25:52;;;;;;;8.18;2.25;;;;;;;;;;5031690;28;20025;-74
2023/08/20 04:28:18;;;;;;;5.65;2.15;;;;;;;;;;5031140;28;20117;-75
2023/08/20 04:30:43;;;;;;;8.32;2.10;;;;;;;;;;5031716;28;20032;-75
2023/08/20 04:33:09;;;;;;;6.53;2.30;;;;;;;;;;5031378;28;20037;-77
2023/08/20 04:35:34;;;;;;;7.32;2.10;;;;;;;;;;5028968;28;20033;-75
2023/08/20 04:38:00;;;;;;;5.28;2.03;;;;;;;;;;5020462;28;20068;-74
2023/08/20 04:40:25;;;;;;;7.20;2.20;;;;;;;;;;5040124;28;20064;-75
2023/08/20 04:42:51;;;;;;;6.07;1.90;;;;;;;;;;5042037;28;20033;-77
2023/08/20 04:45:19;;;;;;;8.65;2.20;;;;;;;;;;5039044;28;20021;-76
2023/08/20 04:47:45;;;;;;;6.05;2.30;;;;;;;;;;5040972;28;20082;-76
2023/08/20 04:50:11;;;;;;;5.75;2.15;;;;;;;;;;5032977;28;20066;-76
2023/08/20 04:52:36;;;;;;;6.63;2.10;;;;;;;;;;5031093;28;20037;-76
2023/08/20 04:55:02;;;;;;;6.65;2.58;;;;;;;;;;5034120;28;20032;-76
2023/08/20 04:57:27;;;;;;;7.18;2.17;;;;;;;;;;5035801;28;20029;-75
2023/08/20 04:59:53;;;;;;;7.60;2.35;;;;;;;;;;5031456;28;20029;-76
2023/08/20 05:02:18;;;;;;;6.32;2.33;;;;;;;;;;5035770;28;20029;-76
2023/08/20 05:04:44;;;;;;;6.70;2.10;;;;;;;;;;5031462;28;20052;-75
2023/08/20 05:07:09;;;;;;;6.60;2.08;;;;;;;;;;5044918;28;20036;-75
2023/08/20 05:09:34;;;;;;;6.35;2.10;;;;;;;;;;5031233;28;20477;-75
2023/08/20 05:12:00;;;;;;;7.95;2.17;;;;;;;;;;5032642;28;20492;-75
2023/08/20 05:14:25;;;;;;;6.72;2.17;;;;;;;;;;5030277;28;20048;-75
2023/08/20 05:16:50;;;;;;;7.03;2.00;;;;;;;;;;5031438;28;20037;-75
2023/08/20 05:19:15;;;;;;;6.15;2.05;;;;;;;;;;5030920;28;20037;-76
2023/08/20 05:21:41;;;;;;;5.72;2.05;;;;;;;;;;5048519;28;20033;-76
2023/08/20 05:24:06;;;;;;;8.57;2.45;;;;;;;;;;5032069;28;20036;-75
2023/08/20 05:26:32;;;;;;;8.25;2.20;;;;;;;;;;5037525;28;20143;-75
2023/08/20 05:28:57;;;;;;;5.45;2.05;;;;;;;;;;5044674;28;20034;-75
2023/08/20 05:31:22;;;;;;;10.10;2.40;;;;;;;;;;5044874;28;20033;-76
2023/08/20 05:33:48;;;;;;;6.93;2.58;;;;;;;;;;5042550;28;20025;-76
2023/08/20 05:36:14;;;;;;;7.25;2.08;;;;;;;;;;5033670;28;20120;-75
2023/08/20 05:38:42;;;;;;;5.32;2.05;;;;;;;;;;5030119;28;20091;-75
2023/08/20 05:41:07;;;;;;;8.32;2.15;;;;;;;;;;5037731;28;20029;-75
2023/08/20 05:43:32;;;;;;;6.20;2.00;;;;;;;;;;5028994;28;20120;-76
2023/08/20 05:45:58;;;;;;;6.10;2.05;;;;;;;;;;5039672;28;20106;-75
2023/08/20 05:48:23;;;;;;;8.73;2.17;;;;;;;;;;5034540;28;20076;-75
2023/08/20 05:50:48;;;;;;;8.80;2.20;;;;;;;;;;5042071;28;20079;-75
2023/08/20 05:53:14;;;;;;;5.78;2.20;;;;;;;;;;5036074;28;20057;-75
2023/08/20 05:55:40;;;;;;;9.07;2.25;;;;;;;;;;5031245;28;20029;-76
2023/08/20 05:58:05;;;;;;;6.60;2.35;;;;;;;;;;5034343;28;20067;-76
2023/08/20 06:00:30;;;;;;;7.00;2.20;;;;;;;;;;5039403;28;20108;-75
2023/08/20 06:02:56;;;;;;;6.40;2.25;;;;;;;;;;5029778;28;20072;-75
2023/08/20 06:05:21;;;;;;;8.50;2.30;;;;;;;;;;5042227;28;20451;-76
2023/08/20 06:07:46;;;;;;;6.70;2.22;;;;;;;;;;5043083;28;20824;-75
2023/08/20 06:10:12;;;;;;;7.85;2.08;;;;;;;;;;5040833;28;20036;-75
2023/08/20 06:12:37;;;;;;;6.85;2.40;;;;;;;;;;5034688;28;20033;-76
2023/08/20 06:15:04;;;;;;;10.88;2.30;;;;;;;;;;5036604;28;20029;-75
2023/08/20 06:17:29;;;;;;;8.27;2.47;;;;;;;;;;5029064;28;20037;-75
2023/08/20 06:19:55;;;;;;;5.82;2.40;;;;;;;;;;5039684;28;20086;-75
2023/08/20 06:22:20;;;;;;;5.85;2.13;;;;;;;;;;5034966;28;20030;-75
2023/08/20 06:24:45;;;;;;;10.48;2.63;;;;;;;;;;5031274;28;20028;-75
2023/08/20 06:27:11;;;;;;;8.95;2.50;;;;;;;;;;5035472;28;20148;-75
2023/08/20 06:29:37;;;;;;;7.65;2.50;;;;;;;;;;5044276;28;20025;-76
2023/08/20 06:32:02;;;;;;;7.03;2.40;;;;;;;;;;5027979;28;20041;-76
2023/08/20 06:34:28;;;;;;;8.07;2.45;;;;;;;;;;5031537;28;20026;-75
2023/08/20 06:36:54;;;;;;;10.30;2.67;;;;;;;;;;5039081;28;20025;-75
2023/08/20 06:39:19;;;;;;;8.60;2.50;;;;;;;;;;5041962;28;20131;-75
2023/08/20 06:41:45;;;;;;;7.30;2.58;;;;;;;;;;5030214;28;20025;-75
2023/08/20 06:44:10;;;;;;;8.30;2.78;;;;;;;;;;5026214;28;20063;-75
2023/08/20 06:46:36;;;;;;;8.70;2.35;;;;;;;;;;5031892;28;20593;-75
2023/08/20 06:49:01;;;;;;;7.15;2.70;;;;;;;;;;5028208;28;20109;-74
2023/08/20 06:51:28;;;;;;;7.75;2.70;;;;;;;;;;5028747;28;20112;-75
2023/08/20 06:53:54;;;;;;;6.88;2.67;;;;;;;;;;5029093;28;20465;-74
2023/08/20 06:56:19;;;;;;;6.45;2.40;;;;;;;;;;5029251;28;20070;-76
2023/08/20 06:58:46;;;;;;;7.55;2.67;;;;;;;;;;5036111;28;20037;-75
2023/08/20 07:01:12;;;;;;;6.38;2.50;;;;;;;;;;5032862;28;20040;-75
2023/08/20 07:03:40;;;;;;;8.95;2.60;;;;;;;;;;5028968;28;20029;-74
2023/08/20 07:06:06;;;;;;;9.25;2.53;;;;;;;;;;5031862;28;20512;-76
2023/08/20 07:08:31;;;;;;;8.07;2.50;;;;;;;;;;5035452;28;20115;-74
2023/08/20 07:10:58;;;;;;;7.93;2.53;;;;;;;;;;5032866;28;20491;-74
2023/08/20 07:13:23;;;;;;;6.57;2.40;;;;;;;;;;5040364;28;20032;-75
2023/08/20 07:15:49;;;;;;;10.13;2.58;;;;;;;;;;5034012;28;20021;-75
2023/08/20 07:18:15;;;;;;;5.22;2.30;;;;;;;;;;5035137;28;20489;-76
2023/08/20 07:20:43;;;;;;;6.15;2.20;;;;;;;;;;5026487;28;20029;-75
2023/08/20 07:23:10;;;;;;;7.88;2.67;;;;;;;;;;5031729;28;20025;-76
2023/08/20 07:25:40;;;;;;;7.15;2.88;;;;;;;;;;5041840;28;20029;-75
2023/08/20 07:28:06;;;;;;;6.80;2.60;;;;;;;;;;5040822;28;20075;-75
2023/08/20 07:30:32;;;;;;;8.68;2.75;;;;;;;;;;5044688;28;20021;-75
2023/08/20 07:32:57;;;;;;;6.30;2.45;;;;;;;;;;5040253;28;20029;-75
2023/08/20 07:35:23;;;;;;;9.07;2.80;;;;;;;;;;5039591;28;20026;-75
2023/08/20 07:37:49;;;;;;;6.20;2.50;;;;;;;;;;5040650;28;20032;-75
2023/08/20 07:40:14;;;;;;;9.05;2.78;;;;;;;;;;5041716;28;20100;-75
2023/08/20 07:42:43;;;;;;;5.68;2.42;;;;;;;;;;5035562;28;20376;-76
2023/08/20 07:45:09;;;;;;;8.25;2.60;;;;;;;;;;5032951;28;20053;-75
2023/08/20 07:47:38;;;;;;;9.57;2.72;;;;;;;;;;5044774;28;20135;-75
2023/08/20 07:50:04;;;;;;;5.25;2.47;;;;;;;;;;5037446;28;20393;-75
2023/08/20 07:52:33;;;;;;;9.13;2.42;;;;;;;;;;5040656;28;20043;-74
2023/08/20 07:54:58;;;;;;;10.25;2.65;;;;;;;;;;5040381;28;20040;-75
2023/08/20 07:57:24;;;;;;;7.25;2.35;;;;;;;;;;5037660;28;20029;-75
2023/08/20 07:59:49;;;;;;;7.30;2.50;;;;;;;;;;5039777;28;20030;-75
2023/08/20 08:02:15;;;;;;;7.45;2.40;;;;;;;;;;5042018;28;20445;-75
2023/08/20 08:04:42;;;;;;;6.28;2.65;;;;;;;;;;5043401;28;20354;-75
2023/08/20 08:07:07;;;;;;;7.60;2.75;;;;;;;;;;5042700;28;20037;-75
2023/08/20 08:09:33;;;;;;;6.38;2.75;;;;;;;;;;5037541;28;20041;-75
2023/08/20 08:11:59;;;;;;;4.85;2.47;;;;;;;;;;5036161;28;20030;-75
2023/08/20 08:14:25;;;;;;;6.40;2.80;;;;;;;;;;5041814;28;20029;-75
2023/08/20 08:16:51;;;;;;;5.13;2.50;;;;;;;;;;5044618;28;20652;-77
2023/08/20 08:19:17;;;;;;;5.85;2.50;;;;;;;;;;5040436;28;20026;-75
2023/08/20 08:21:43;;;;;;;5.55;2.75;;;;;;;;;;5044636;28;20029;-76
2023/08/20 08:24:09;;;;;;;5.90;2.65;;;;;;;;;;5042497;28;20358;-75
2023/08/20 08:26:35;;;;;;;7.88;2.80;;;;;;;;;;5044647;28;20032;-74
2023/08/20 08:29:05;;;;;;;4.47;2.60;;;;;;;;;;5043413;28;20032;-78
2023/08/20 08:31:30;;;;;;;5.22;2.83;;;;;;;;;;5037908;28;20147;-76
2023/08/20 08:33:56;;;;;;;5.60;2.70;;;;;;;;;;5039850;28;20112;-75
2023/08/20 08:36:21;;;;;;;5.38;2.80;;;;;;;;;;5038747;28;20031;-75
2023/08/20 08:38:47;;;;;;;7.07;2.75;;;;;;;;;;5040296;28;20033;-76
2023/08/20 08:41:13;;;;;;;6.25;2.92;;;;;;;;;;5033970;28;20096;-75
2023/08/20 08:43:39;;;;;;;6.32;2.60;;;;;;;;;;5038073;28;20021;-74
2023/08/20 08:46:13;;;;;;;5.93;2.80;;;;;;;;;;5044775;28;20103;-74
2023/08/20 08:48:40;;;;;;;5.20;2.63;;;;;;;;;;5031395;28;20378;-74
2023/08/20 08:51:05;;;;;;;5.65;2.70;;;;;;;;;;5035668;28;20030;-75
2023/08/20 08:53:32;;;;;;;6.72;2.72;;;;;;;;;;5031220;28;20029;-75
2023/08/20 08:55:57;;;;;;;4.43;2.78;;;;;;;;;;5032562;28;20504;-74
2023/08/20 08:58:25;;;;;;;6.38;2.72;;;;;;;;;;5037434;28;20028;-75
2023/08/20 09:00:51;;;;;;;5.90;2.60;;;;;;;;;;5041767;28;20025;-74
2023/08/20 09:03:16;;;;;;;6.32;2.83;;;;;;;;;;5031772;28;20070;-74
2023/08/20 09:05:57;;;;;;;5.35;2.60;;;;;;;;;;5032457;28;20030;-74
2023/08/20 09:08:27;;;;;;;6.35;2.80;;;;;;;;;;5022512;28;20140;-75
2023/08/20 09:10:54;;;;;;;4.78;2.67;;;;;;;;;;5043610;28;20073;-75
2023/08/20 09:13:42;;;;;;;5.30;2.70;;;;;;;;;;5023932;28;20080;-75
2023/08/20 09:16:09;;;;;;;5.40;2.60;;;;;;;;;;5033591;28;20036;-76
2023/08/20 09:18:43;;;;;;;4.82;2.60;;;;;;;;;;5033915;28;20025;-76
2023/08/20 09:21:10;;;;;;;5.32;2.70;;;;;;;;;;5037398;28;20112;-74
2023/08/20 09:23:37;;;;;;;5.90;2.75;;;;;;;;;;5036072;28;20036;-75
2023/08/20 09:26:03;;;;;;;4.50;2.58;;;;;;;;;;5025916;28;20040;-76
2023/08/20 09:28:29;;;;;;;5.35;2.65;;;;;;;;;;5034110;28;20089;-78
2023/08/20 09:30:58;;;;;;;4.15;2.60;;;;;;;;;;5042952;28;20029;-76
2023/08/20 09:33:24;;;;;;;6.05;2.72;;;;;;;;;;5042788;28;20064;-83
2023/08/20 09:35:50;;;;;;;5.70;2.50;;;;;;;;;;5032774;28;20071;-84
2023/08/20 09:38:21;;;;;;;4.25;2.05;;;;;;;;;;5033729;28;20124;-83
2023/08/20 09:40:52;;;;;;;5.05;2.28;;;;;;;;;;5033655;28;20037;-83
2023/08/20 09:43:18;;;;;;;6.32;2.40;;;;;;;;;;5030422;28;20619;-84
2023/08/20 09:45:46;;;;;;;5.55;2.50;;;;;;;;;;5041667;28;20041;-83
2023/08/20 09:48:13;;;;;;;5.35;2.30;;;;;;;;;;5030460;28;20035;-81
2023/08/20 09:50:40;;;;;;;5.53;2.38;;;;;;;;;;5045077;28;20424;-82
2023/08/20 09:53:18;;;;;;;5.65;2.40;;;;;;;;;;5031138;28;20056;-78
2023/08/20 09:55:45;;;;;;;4.85;2.30;;;;;;;;;;5030219;28;20478;-77
2023/08/20 09:58:11;;;;;;;3.17;1.83;;;;;;;;;;5041016;28;20021;-81
2023/08/20 10:00:38;;;;;;;5.07;2.20;;;;;;;;;;5032305;28;20028;-80
2023/08/20 10:03:03;;;;;;;4.95;2.00;;;;;;;;;;5030039;28;20112;-81
2023/08/20 10:05:30;;;;;;;6.38;2.03;;;;;;;;;;5029880;28;20109;-82
2023/08/20 10:07:57;;;;;;;5.38;2.05;;;;;;;;;;5029208;28;20056;-81
2023/08/20 10:10:23;;;;;;;4.63;2.03;;;;;;;;;;5029618;28;20033;-83
2023/08/20 10:12:49;;;;;;;6.57;2.00;;;;;;;;;;5028087;28;20041;-82
2023/08/20 10:15:15;;;;;;;7.25;2.13;;;;;;;;;;5031853;28;20033;-83
2023/08/20 10:17:44;;;;;;;6.25;2.00;;;;;;;;;;5029737;28;20100;-83
2023/08/20 10:20:12;;;;;;;4.35;2.13;;;;;;;;;;5030080;28;20055;-82
2023/08/20 10:22:43;;;;;;;5.28;2.20;;;;;;;;;;5035710;28;20100;-82
2023/08/20 10:25:21;;;;;;;5.05;2.38;;;;;;;;;;5026449;28;20026;-82
2023/08/20 10:27:47;;;;;;;5.03;2.35;;;;;;;;;;5037859;28;20108;-80
2023/08/20 10:30:21;;;;;;;6.40;2.20;;;;;;;;;;5034223;28;20119;-81
2023/08/20 10:32:56;;;;;;;4.93;2.40;;;;;;;;;;5026266;28;20056;-81
2023/08/20 10:35:28;;;;;;;4.93;2.35;;;;;;;;;;5031181;28;20482;-81
2023/08/20 10:38:19;;;;;;;5.15;2.28;;;;;;;;;;5030188;28;20473;-82
2023/08/20 10:40:56;;;;;;;4.80;2.45;;;;;;;;;;5029176;28;20030;-74
2023/08/20 10:43:34;;;;;;;5.90;2.20;;;;;;;;;;5029301;28;20522;-82
2023/08/20 10:46:03;;;;;;;4.85;2.45;;;;;;;;;;5032748;28;20030;-77
2023/08/20 10:48:29;;;;;;;4.75;2.28;;;;;;;;;;5014848;28;20178;-82
2023/08/20 10:50:55;;;;;;;4.82;2.47;;;;;;;;;;5034113;28;20385;-81
2023/08/20 10:53:22;;;;;;;4.50;2.28;;;;;;;;;;5024147;28;20025;-81
2023/08/20 10:55:51;;;;;;;4.20;2.47;;;;;;;;;;5042454;28;20032;-81
2023/08/20 10:58:17;;;;;;;4.93;2.40;;;;;;;;;;5032448;28;20140;-82
2023/08/20 11:00:42;;;;;;;3.88;2.30;;;;;;;;;;5038627;28;20112;-76
2023/08/20 11:03:08;;;;;;;4.95;2.40;;;;;;;;;;5032648;28;20075;-82
2023/08/20 11:05:34;;;;;;;4.22;2.30;;;;;;;;;;5034387;28;20124;-81
2023/08/20 11:08:00;;;;;;;4.28;2.40;;;;;;;;;;5029157;28;20749;-83
2023/08/20 11:10:27;;;;;;;4.38;2.20;;;;;;;;;;5034681;28;20072;-81
2023/08/20 11:12:52;;;;;;;5.95;2.35;;;;;;;;;;5036317;28;20478;-82
2023/08/20 11:15:18;;;;;;;5.03;2.22;;;;;;;;;;5042926;28;20029;-77
2023/08/20 11:17:47;;;;;;;5.15;2.50;;;;;;;;;;5027562;28;20026;-83
2023/08/20 11:20:16;;;;;;;6.60;2.17;;;;;;;;;;5032518;28;20569;-82
2023/08/20 11:22:41;;;;;;;3.97;2.40;;;;;;;;;;5040298;28;20513;-79
2023/08/20 11:25:12;;;;;;;5.57;2.30;;;;;;;;;;5037117;28;20025;-79
2023/08/20 11:27:41;;;;;;;4.68;2.22;;;;;;;;;;5037200;28;20028;-81
2023/08/20 11:30:07;;;;;;;4.53;2.30;;;;;;;;;;5028806;28;20075;-81
2023/08/20 11:32:33;;;;;;;5.28;2.10;;;;;;;;;;5027798;28;20033;-81
2023/08/20 11:34:58;;;;;;;4.97;2.20;;;;;;;;;;5037512;28;20020;-82
2023/08/20 11:37:25;;;;;;;4.65;2.20;;;;;;;;;;5037221;28;20492;-80
2023/08/20 11:39:50;;;;;;;5.50;2.40;;;;;;;;;;5028784;28;20120;-82
2023/08/20 11:42:16;;;;;;;5.95;2.40;;;;;;;;;;5028650;28;20104;-80
2023/08/20 11:44:44;;;;;;;4.47;2.40;;;;;;;;;;5024079;28;20091;-82
2023/08/20 11:47:16;;;;;;;4.40;2.40;;;;;;;;;;5036936;28;20100;-78
2023/08/20 11:49:41;;;;;;;4.22;2.15;;;;;;;;;;5029029;28;20033;-83
2023/08/20 11:52:07;;;;;;;5.25;2.08;;;;;;;;;;5041945;28;20040;-82
2023/08/20 11:54:32;;;;;;;5.28;2.22;;;;;;;;;;5032943;28;20037;-83
2023/08/20 11:57:03;;;;;;;4.57;2.20;;;;;;;;;;5043433;28;20033;-78
2023/08/20 11:59:28;;;;;;;7.38;2.58;;;;;;;;;;5032089;28;20482;-80
2023/08/20 12:01:59;;;;;;;5.18;2.30;;;;;;;;;;5037481;28;20080;-82
2023/08/20 12:04:28;;;;;;;5.70;2.30;;;;;;;;;;5029168;28;20254;-82
2023/08/20 12:07:10;;;;;;;5.18;2.15;;;;;;;;;;5037965;28;20069;-84
2023/08/20 12:09:35;;;;;;;5.28;2.40;;;;;;;;;;5029360;28;20045;-81
2023/08/20 12:12:02;;;;;;;6.15;2.47;;;;;;;;;;5045735;28;20107;-82
2023/08/20 12:14:27;;;;;;;3.97;2.22;;;;;;;;;;5031919;28;20469;-82
2023/08/20 12:16:56;;;;;;;5.47;2.30;;;;;;;;;;5031961;28;20029;-81
2023/08/20 12:19:21;;;;;;;4.05;2.30;;;;;;;;;;5033519;28;20032;-83
2023/08/20 12:21:48;;;;;;;6.50;2.63;;;;;;;;;;5032436;28;20079;-83
2023/08/20 12:24:14;;;;;;;5.18;2.67;;;;;;;;;;5034604;28;20025;-83
2023/08/20 12:26:40;;;;;;;4.03;2.10;;;;;;;;;;5032026;28;20040;-81
2023/08/20 12:29:05;;;;;;;5.32;2.30;;;;;;;;;;5031819;28;20061;-81
2023/08/20 12:31:32;;;;;;;6.20;2.30;;;;;;;;;;5047460;28;20024;-80
2023/08/20 12:33:57;;;;;;;5.38;2.47;;;;;;;;;;5033034;28;20037;-81
2023/08/20 12:36:23;;;;;;;4.03;2.13;;;;;;;;;;5036379;28;20079;-82
2023/08/20 12:38:48;;;;;;;3.75;2.03;;;;;;;;;;5034545;28;20025;-80
2023/08/20 12:41:14;;;;;;;5.22;1.98;;;;;;;;;;5037650;28;20449;-83
2023/08/20 12:43:40;;;;;;;3.53;2.20;;;;;;;;;;5031709;28;20621;-82
2023/08/20 12:46:05;;;;;;;4.32;2.10;;;;;;;;;;5039279;28;20139;-81
2023/08/20 12:48:31;;;;;;;4.15;2.20;;;;;;;;;;5044812;28;20029;-80
2023/08/20 12:50:57;;;;;;;3.55;2.10;;;;;;;;;;5032266;28;20120;-80
2023/08/20 12:53:22;;;;;;;3.03;2.10;;;;;;;;;;5031571;28;20067;-82
2023/08/20 12:55:47;;;;;;;3.28;2.10;;;;;;;;;;5031637;28;20417;-81
2023/08/20 12:58:13;;;;;;;3.83;2.10;;;;;;;;;;5041312;28;20424;-81
2023/08/20 13:00:38;;;;;;;4.35;2.00;;;;;;;;;;5041022;28;20021;-81
2023/08/20 13:03:04;;;;;;;4.88;2.10;;;;;;;;;;5037901;28;20021;-84
2023/08/20 13:05:30;;;;;;;4.10;2.03;;;;;;;;;;5046822;28;20032;-81
2023/08/20 13:07:56;;;;;;;4.25;2.17;;;;;;;;;;5033440;28;20060;-82
2023/08/20 13:10:22;;;;;;;6.28;2.20;;;;;;;;;;5029492;28;20397;-82
2023/08/20 13:12:53;;;;;;;3.78;2.00;;;;;;;;;;5031245;28;20033;-83
2023/08/20 13:15:21;;;;;;;5.25;2.15;;;;;;;;;;5032145;28;20021;-82
2023/08/20 13:17:48;;;;;;;3.60;1.95;;;;;;;;;;5037420;28;20397;-83
2023/08/20 13:20:14;;;;;;;6.20;2.10;;;;;;;;;;5049007;28;20061;-82
2023/08/20 13:22:40;;;;;;;4.22;2.00;;;;;;;;;;5029033;28;20536;-81
2023/08/20 13:25:06;;;;;;;4.40;2.00;;;;;;;;;;5031998;28;20037;-81
2023/08/20 13:27:31;;;;;;;3.55;2.10;;;;;;;;;;5030779;28;20037;-82
2023/08/20 13:29:57;;;;;;;4.55;2.10;;;;;;;;;;5032273;28;20515;-80
2023/08/20 13:32:22;;;;;;;4.43;2.20;;;;;;;;;;5034377;28;20072;-83
2023/08/20 13:34:49;;;;;;;4.75;2.15;;;;;;;;;;5035558;28;20029;-81
2023/08/20 13:37:14;;;;;;;4.63;2.20;;;;;;;;;;5031573;28;20037;-83
2023/08/20 13:39:40;;;;;;;4.72;2.00;;;;;;;;;;5034967;28;20024;-81
2023/08/20 13:42:05;;;;;;;4.60;2.10;;;;;;;;;;5032517;28;21238;-81
2023/08/20 13:44:30;;;;;;;5.57;2.20;;;;;;;;;;5030612;28;20516;-81
2023/08/20 13:46:56;;;;;;;3.58;2.00;;;;;;;;;;5031860;28;20025;-80
2023/08/20 13:49:21;;;;;;;3.47;2.00;;;;;;;;;;5035984;28;20036;-82
2023/08/20 13:51:46;;;;;;;3.63;2.10;;;;;;;;;;5037232;28;20045;-82
2023/08/20 13:54:12;;;;;;;5.53;2.15;;;;;;;;;;5030254;28;20082;-78
2023/08/20 13:56:37;;;;;;;6.03;2.10;;;;;;;;;;5030225;28;20029;-80
2023/08/20 13:59:02;;;;;;;2.90;1.80;;;;;;;;;;5029995;28;20033;-79
2023/08/20 14:01:28;;;;;;;3.47;1.98;;;;;;;;;;5031230;28;20029;-84
2023/08/20 14:03:54;;;;;;;3.97;1.90;;;;;;;;;;5034695;28;20629;-82
2023/08/20 14:06:19;;;;;;;4.40;2.00;;;;;;;;;;5030082;28;20036;-81
2023/08/20 14:08:44;;;;;;;4.38;2.00;;;;;;;;;;5038435;28;20048;-84
2023/08/20 14:11:10;;;;;;;3.40;2.03;;;;;;;;;;5030024;28;20460;-83
2023/08/20 14:13:35;;;;;;;4.18;1.95;;;;;;;;;;5030066;28;20077;-85
2023/08/20 14:16:02;;;;;;;4.35;2.00;;;;;;;;;;5031018;28;20110;-76
2023/08/20 14:18:27;;;;;;;5.07;2.13;;;;;;;;;;5037564;28;20087;-83
2023/08/20 14:20:53;;;;;;;4.10;2.08;;;;;;;;;;5029830;28;20030;-81
2023/08/20 14:23:19;;;;;;;4.75;2.10;;;;;;;;;;5029710;28;20029;-82
2023/08/20 14:25:44;;;;;;;3.97;2.28;;;;;;;;;;5030106;28;20143;-84
2023/08/20 14:28:09;;;;;;;4.20;1.75;;;;;;;;;;5042578;28;20513;-84
2023/08/20 14:30:38;;;;;;;3.50;2.10;;;;;;;;;;5037649;28;20027;-83
2023/08/20 14:33:05;;;;;;;3.53;1.90;;;;;;;;;;5029382;28;20060;-82
2023/08/20 14:35:31;;;;;;;3.90;1.83;;;;;;;;;;5029088;28;20057;-78
2023/08/20 14:37:57;;;;;;;3.50;1.90;;;;;;;;;;5022839;28;20025;-82
2023/08/20 14:40:23;;;;;;;3.60;2.00;;;;;;;;;;5030849;28;20045;-83